sensor_id;sensor_type;location;lat;lon;timestamp;temperature;humidity
16441;DHT22;8330;-33.858;151.184;2023-01-19T00:01:58;21.50;99.90
16441;DHT22;8330;-33.858;151.184;2023-01-19T00:04:30;21.50;99.90
16441;DHT22;8330;-33.858;151.184;2023-01-19T00:07:04;21.50;99.90
16441;DHT22;8330;-33.858;151.184;2023-01-19T00:09:37;21.40;99.90
16441;DHT22;8330;-33.858;151.184;2023-01-19T00:12:10;21.40;99.90
16441;DHT22;8330;-33.858;151.184;2023-01-19T00:14:41;21.30;99.90
16441;DHT22;8330;-33.858;151.184;2023-01-19T00:17:14;21.20;99.90
16441;DHT22;8330;-33.858;151.184;2023-01-19T00:19:46;21.20;99.90
16441;DHT22;8330;-33.858;151.184;2023-01-19T00:22:31;21.20;99.90
16441;DHT22;8330;-33.858;151.184;2023-01-19T00:25:03;21.10;99.90
16441;DHT22;8330;-33.858;151.184;2023-01-19T00:27:35;21.20;99.90
16441;DHT22;8330;-33.858;151.184;2023-01-19T00:30:16;21.20;99.90
16441;DHT22;8330;-33.858;151.184;2023-01-19T00:32:49;21.30;99.90
16441;DHT22;8330;-33.858;151.184;2023-01-19T00:35:20;21.30;99.90
16441;DHT22;8330;-33.858;151.184;2023-01-19T00:37:51;21.30;99.90
16441;DHT22;8330;-33.858;151.184;2023-01-19T00:40:23;21.30;99.90
16441;DHT22;8330;-33.858;151.184;2023-01-19T00:42:54;21.40;99.90
16441;DHT22;8330;-33.858;151.184;2023-01-19T00:45:24;21.40;99.90
16441;DHT22;8330;-33.858;151.184;2023-01-19T00:47:57;21.30;99.90
16441;DHT22;8330;-33.858;151.184;2023-01-19T00:50:29;21.40;99.90
16441;DHT22;8330;-33.858;151.184;2023-01-19T00:53:01;21.40;99.90
16441;DHT22;8330;-33.858;151.184;2023-01-19T00:55:33;21.40;99.90
16441;DHT22;8330;-33.858;151.184;2023-01-19T00:58:08;21.40;99.90
16441;DHT22;8330;-33.858;151.184;2023-01-19T01:00:39;21.40;99.90
16441;DHT22;8330;-33.858;151.184;2023-01-19T01:03:12;21.50;99.90
16441;DHT22;8330;-33.858;151.184;2023-01-19T01:05:43;21.40;99.90
16441;DHT22;8330;-33.858;151.184;2023-01-19T01:08:14;21.40;99.90
16441;DHT22;8330;-33.858;151.184;2023-01-19T01:10:45;21.40;99.90
16441;DHT22;8330;-33.858;151.184;2023-01-19T01:13:16;21.30;99.90
16441;DHT22;8330;-33.858;151.184;2023-01-19T01:15:50;21.30;99.90
16441;DHT22;8330;-33.858;151.184;2023-01-19T01:18:24;21.30;99.90
16441;DHT22;8330;-33.858;151.184;2023-01-19T01:21:01;21.40;99.90
16441;DHT22;8330;-33.858;151.184;2023-01-19T01:23:34;21.40;99.90
16441;DHT22;8330;-33.858;151.184;2023-01-19T01:26:05;21.40;99.90
16441;DHT22;8330;-33.858;151.184;2023-01-19T01:28:37;21.40;99.90
16441;DHT22;8330;-33.858;151.184;2023-01-19T01:31:09;21.40;99.90
16441;DHT22;8330;-33.858;151.184;2023-01-19T01:33:43;21.30;99.90
16441;DHT22;8330;-33.858;151.184;2023-01-19T01:36:14;21.30;99.90
16441;DHT22;8330;-33.858;151.184;2023-01-19T01:38:45;21.20;99.90
16441;DHT22;8330;-33.858;151.184;2023-01-19T01:41:16;21.20;99.90
16441;DHT22;8330;-33.858;151.184;2023-01-19T01:43:49;21.10;99.90
16441;DHT22;8330;-33.858;151.184;2023-01-19T01:46:20;21.10;99.90
16441;DHT22;8330;-33.858;151.184;2023-01-19T01:48:56;21.00;99.90
16441;DHT22;8330;-33.858;151.184;2023-01-19T01:51:35;21.10;99.90
16441;DHT22;8330;-33.858;151.184;2023-01-19T01:54:12;21.10;99.90
16441;DHT22;8330;-33.858;151.184;2023-01-19T01:56:47;21.20;99.90
16441;DHT22;8330;-33.858;151.184;2023-01-19T01:59:20;21.30;99.90
16441;DHT22;8330;-33.858;151.184;2023-01-19T02:01:56;21.30;99.90
16441;DHT22;8330;-33.858;151.184;2023-01-19T02:04:48;21.30;99.90
16441;DHT22;8330;-33.858;151.184;2023-01-19T02:07:30;21.20;99.90
16441;DHT22;8330;-33.858;151.184;2023-01-19T02:10:18;21.20;99.90
16441;DHT22;8330;-33.858;151.184;2023-01-19T02:13:05;21.20;99.90
16441;DHT22;8330;-33.858;151.184;2023-01-19T02:15:53;21.10;99.90
16441;DHT22;8330;-33.858;151.184;2023-01-19T02:18:29;21.10;99.90
16441;DHT22;8330;-33.858;151.184;2023-01-19T02:21:09;21.00;99.90
16441;DHT22;8330;-33.858;151.184;2023-01-19T02:23:44;21.00;99.90
16441;DHT22;8330;-33.858;151.184;2023-01-19T02:26:19;20.90;99.90
16441;DHT22;8330;-33.858;151.184;2023-01-19T02:28:52;20.80;99.90
16441;DHT22;8330;-33.858;151.184;2023-01-19T02:31:26;20.70;99.90
16441;DHT22;8330;-33.858;151.184;2023-01-19T02:34:02;20.60;99.90
16441;DHT22;8330;-33.858;151.184;2023-01-19T02:36:36;20.50;99.90
16441;DHT22;8330;-33.858;151.184;2023-01-19T02:39:16;20.50;99.90
16441;DHT22;8330;-33.858;151.184;2023-01-19T02:41:52;20.40;99.90
16441;DHT22;8330;-33.858;151.184;2023-01-19T02:44:37;20.50;99.90
16441;DHT22;8330;-33.858;151.184;2023-01-19T02:47:10;20.60;99.90
16441;DHT22;8330;-33.858;151.184;2023-01-19T02:49:52;20.70;99.90
16441;DHT22;8330;-33.858;151.184;2023-01-19T02:52:24;20.70;99.90
16441;DHT22;8330;-33.858;151.184;2023-01-19T02:55:07;20.80;99.90
16441;DHT22;8330;-33.858;151.184;2023-01-19T02:57:58;21.00;99.90
16441;DHT22;8330;-33.858;151.184;2023-01-19T03:00:39;21.10;99.90
16441;DHT22;8330;-33.858;151.184;2023-01-19T03:03:22;21.20;99.90
16441;DHT22;8330;-33.858;151.184;2023-01-19T03:06:02;21.30;99.90
16441;DHT22;8330;-33.858;151.184;2023-01-19T03:08:44;21.30;99.90
16441;DHT22;8330;-33.858;151.184;2023-01-19T03:11:19;21.30;99.90
16441;DHT22;8330;-33.858;151.184;2023-01-19T03:13:55;21.30;99.90
16441;DHT22;8330;-33.858;151.184;2023-01-19T03:16:38;21.40;99.90
16441;DHT22;8330;-33.858;151.184;2023-01-19T03:19:17;21.30;99.90
16441;DHT22;8330;-33.858;151.184;2023-01-19T03:21:51;21.20;99.90
16441;DHT22;8330;-33.858;151.184;2023-01-19T03:24:25;21.10;99.90
16441;DHT22;8330;-33.858;151.184;2023-01-19T03:27:02;21.10;99.90
16441;DHT22;8330;-33.858;151.184;2023-01-19T03:29:35;21.10;99.90
16441;DHT22;8330;-33.858;151.184;2023-01-19T03:32:11;21.10;99.90
16441;DHT22;8330;-33.858;151.184;2023-01-19T03:34:43;21.20;99.90
16441;DHT22;8330;-33.858;151.184;2023-01-19T03:37:20;21.20;99.90
16441;DHT22;8330;-33.858;151.184;2023-01-19T03:39:51;21.30;99.90
16441;DHT22;8330;-33.858;151.184;2023-01-19T03:42:24;21.20;99.90
16441;DHT22;8330;-33.858;151.184;2023-01-19T03:45:00;21.30;99.90
16441;DHT22;8330;-33.858;151.184;2023-01-19T03:47:31;21.40;99.90
16441;DHT22;8330;-33.858;151.184;2023-01-19T03:50:05;21.40;99.90
16441;DHT22;8330;-33.858;151.184;2023-01-19T03:52:38;21.40;99.90
16441;DHT22;8330;-33.858;151.184;2023-01-19T03:55:10;21.40;99.90
16441;DHT22;8330;-33.858;151.184;2023-01-19T03:57:43;21.40;99.90
16441;DHT22;8330;-33.858;151.184;2023-01-19T04:00:15;21.30;99.90
16441;DHT22;8330;-33.858;151.184;2023-01-19T04:02:45;21.30;99.90
16441;DHT22;8330;-33.858;151.184;2023-01-19T04:05:16;21.30;99.90
16441;DHT22;8330;-33.858;151.184;2023-01-19T04:07:49;21.30;99.90
16441;DHT22;8330;-33.858;151.184;2023-01-19T04:10:20;21.30;99.90
16441;DHT22;8330;-33.858;151.184;2023-01-19T04:12:59;21.20;99.90
16441;DHT22;8330;-33.858;151.184;2023-01-19T04:15:31;21.20;99.90
16441;DHT22;8330;-33.858;151.184;2023-01-19T04:18:03;21.20;99.90
16441;DHT22;8330;-33.858;151.184;2023-01-19T04:20:34;21.20;99.90
16441;DHT22;8330;-33.858;151.184;2023-01-19T04:23:06;21.20;99.90
16441;DHT22;8330;-33.858;151.184;2023-01-19T04:25:37;21.30;99.90
16441;DHT22;8330;-33.858;151.184;2023-01-19T04:28:09;21.30;99.90
16441;DHT22;8330;-33.858;151.184;2023-01-19T04:30:42;21.20;99.90
16441;DHT22;8330;-33.858;151.184;2023-01-19T04:33:13;21.30;99.90
16441;DHT22;8330;-33.858;151.184;2023-01-19T04:35:45;21.40;99.90
16441;DHT22;8330;-33.858;151.184;2023-01-19T04:38:16;21.40;99.90
16441;DHT22;8330;-33.858;151.184;2023-01-19T04:40:49;21.40;99.90
16441;DHT22;8330;-33.858;151.184;2023-01-19T04:43:22;21.50;99.90
16441;DHT22;8330;-33.858;151.184;2023-01-19T04:45:53;21.40;99.90
16441;DHT22;8330;-33.858;151.184;2023-01-19T04:48:26;21.40;99.90
16441;DHT22;8330;-33.858;151.184;2023-01-19T04:50:57;21.20;99.90
16441;DHT22;8330;-33.858;151.184;2023-01-19T04:53:30;21.10;99.90
16441;DHT22;8330;-33.858;151.184;2023-01-19T04:56:01;21.20;99.90
16441;DHT22;8330;-33.858;151.184;2023-01-19T04:58:35;21.20;99.90
16441;DHT22;8330;-33.858;151.184;2023-01-19T05:01:08;21.20;99.90
16441;DHT22;8330;-33.858;151.184;2023-01-19T05:03:39;21.30;99.90
16441;DHT22;8330;-33.858;151.184;2023-01-19T05:06:10;21.30;99.90
16441;DHT22;8330;-33.858;151.184;2023-01-19T05:08:41;21.30;99.90
16441;DHT22;8330;-33.858;151.184;2023-01-19T05:11:13;21.30;99.90
16441;DHT22;8330;-33.858;151.184;2023-01-19T05:13:46;21.30;99.90
16441;DHT22;8330;-33.858;151.184;2023-01-19T05:16:17;21.20;99.90
16441;DHT22;8330;-33.858;151.184;2023-01-19T05:18:48;21.20;99.90
16441;DHT22;8330;-33.858;151.184;2023-01-19T05:21:19;21.20;99.90
16441;DHT22;8330;-33.858;151.184;2023-01-19T05:23:50;21.20;99.90
16441;DHT22;8330;-33.858;151.184;2023-01-19T05:26:21;21.30;99.90
16441;DHT22;8330;-33.858;151.184;2023-01-19T05:28:54;21.40;99.90
16441;DHT22;8330;-33.858;151.184;2023-01-19T05:31:25;21.30;99.90
16441;DHT22;8330;-33.858;151.184;2023-01-19T05:33:57;21.30;99.90
16441;DHT22;8330;-33.858;151.184;2023-01-19T05:36:28;21.30;99.90
16441;DHT22;8330;-33.858;151.184;2023-01-19T05:38:59;21.40;99.90
16441;DHT22;8330;-33.858;151.184;2023-01-19T05:41:30;21.50;99.90
16441;DHT22;8330;-33.858;151.184;2023-01-19T05:44:03;21.40;99.90
16441;DHT22;8330;-33.858;151.184;2023-01-19T05:46:34;21.50;99.90
16441;DHT22;8330;-33.858;151.184;2023-01-19T05:49:06;21.50;99.90
16441;DHT22;8330;-33.858;151.184;2023-01-19T05:51:37;21.40;99.90
16441;DHT22;8330;-33.858;151.184;2023-01-19T05:54:13;21.30;99.90
16441;DHT22;8330;-33.858;151.184;2023-01-19T05:56:45;21.20;99.90
16441;DHT22;8330;-33.858;151.184;2023-01-19T05:59:17;21.10;99.90
16441;DHT22;8330;-33.858;151.184;2023-01-19T06:01:51;21.20;99.90
16441;DHT22;8330;-33.858;151.184;2023-01-19T06:04:22;21.20;99.90
16441;DHT22;8330;-33.858;151.184;2023-01-19T06:06:56;21.20;99.90
16441;DHT22;8330;-33.858;151.184;2023-01-19T06:09:34;21.30;99.90
16441;DHT22;8330;-33.858;151.184;2023-01-19T06:12:05;21.30;99.90
16441;DHT22;8330;-33.858;151.184;2023-01-19T06:14:39;21.40;99.90
16441;DHT22;8330;-33.858;151.184;2023-01-19T06:17:11;21.40;99.90
16441;DHT22;8330;-33.858;151.184;2023-01-19T06:19:43;21.40;99.90
16441;DHT22;8330;-33.858;151.184;2023-01-19T06:22:16;21.30;99.90
16441;DHT22;8330;-33.858;151.184;2023-01-19T06:24:47;21.30;99.90
16441;DHT22;8330;-33.858;151.184;2023-01-19T06:27:19;21.20;99.90
16441;DHT22;8330;-33.858;151.184;2023-01-19T06:29:54;21.20;99.90
16441;DHT22;8330;-33.858;151.184;2023-01-19T06:32:25;21.20;99.90
16441;DHT22;8330;-33.858;151.184;2023-01-19T06:34:57;21.10;99.90
16441;DHT22;8330;-33.858;151.184;2023-01-19T06:37:28;21.20;99.90
16441;DHT22;8330;-33.858;151.184;2023-01-19T06:40:00;21.20;99.90
16441;DHT22;8330;-33.858;151.184;2023-01-19T06:42:31;21.20;99.90
16441;DHT22;8330;-33.858;151.184;2023-01-19T06:45:05;21.20;99.90
16441;DHT22;8330;-33.858;151.184;2023-01-19T06:47:37;21.20;99.90
16441;DHT22;8330;-33.858;151.184;2023-01-19T06:50:08;21.20;99.90
16441;DHT22;8330;-33.858;151.184;2023-01-19T06:52:39;21.20;99.90
16441;DHT22;8330;-33.858;151.184;2023-01-19T06:55:11;21.20;99.90
16441;DHT22;8330;-33.858;151.184;2023-01-19T06:57:43;21.30;99.90
16441;DHT22;8330;-33.858;151.184;2023-01-19T07:00:16;21.20;99.90
16441;DHT22;8330;-33.858;151.184;2023-01-19T07:02:48;21.20;99.90
16441;DHT22;8330;-33.858;151.184;2023-01-19T07:05:22;21.20;99.90
16441;DHT22;8330;-33.858;151.184;2023-01-19T07:07:54;21.20;99.90
16441;DHT22;8330;-33.858;151.184;2023-01-19T07:10:26;21.10;99.90
16441;DHT22;8330;-33.858;151.184;2023-01-19T07:12:57;21.10;99.90
16441;DHT22;8330;-33.858;151.184;2023-01-19T07:15:31;21.10;99.90
16441;DHT22;8330;-33.858;151.184;2023-01-19T07:18:04;21.10;99.90
16441;DHT22;8330;-33.858;151.184;2023-01-19T07:20:36;21.10;99.90
16441;DHT22;8330;-33.858;151.184;2023-01-19T07:23:08;21.10;99.90
16441;DHT22;8330;-33.858;151.184;2023-01-19T07:25:39;21.10;99.90
16441;DHT22;8330;-33.858;151.184;2023-01-19T07:28:10;20.90;99.90
16441;DHT22;8330;-33.858;151.184;2023-01-19T07:30:44;20.90;99.90
16441;DHT22;8330;-33.858;151.184;2023-01-19T07:33:15;20.90;99.90
16441;DHT22;8330;-33.858;151.184;2023-01-19T07:35:47;20.90;99.90
16441;DHT22;8330;-33.858;151.184;2023-01-19T07:38:21;21.00;99.90
16441;DHT22;8330;-33.858;151.184;2023-01-19T07:40:51;21.00;99.90
16441;DHT22;8330;-33.858;151.184;2023-01-19T07:43:29;21.00;99.90
16441;DHT22;8330;-33.858;151.184;2023-01-19T07:46:04;20.90;99.90
16441;DHT22;8330;-33.858;151.184;2023-01-19T07:48:35;20.90;99.90
16441;DHT22;8330;-33.858;151.184;2023-01-19T07:51:09;20.90;99.90
16441;DHT22;8330;-33.858;151.184;2023-01-19T07:53:44;20.90;99.90
16441;DHT22;8330;-33.858;151.184;2023-01-19T07:56:16;20.90;99.90
16441;DHT22;8330;-33.858;151.184;2023-01-19T07:58:48;20.90;99.90
16441;DHT22;8330;-33.858;151.184;2023-01-19T08:01:21;20.80;99.90
16441;DHT22;8330;-33.858;151.184;2023-01-19T08:03:53;20.70;99.90
16441;DHT22;8330;-33.858;151.184;2023-01-19T08:06:25;20.70;99.90
16441;DHT22;8330;-33.858;151.184;2023-01-19T08:08:58;20.60;99.90
16441;DHT22;8330;-33.858;151.184;2023-01-19T08:11:32;20.60;99.90
16441;DHT22;8330;-33.858;151.184;2023-01-19T08:14:04;20.70;99.90
16441;DHT22;8330;-33.858;151.184;2023-01-19T08:16:37;20.60;99.90
16441;DHT22;8330;-33.858;151.184;2023-01-19T08:19:08;20.60;99.90
16441;DHT22;8330;-33.858;151.184;2023-01-19T08:21:39;20.60;99.90
16441;DHT22;8330;-33.858;151.184;2023-01-19T08:24:19;20.60;99.90
16441;DHT22;8330;-33.858;151.184;2023-01-19T08:26:58;20.60;99.90
16441;DHT22;8330;-33.858;151.184;2023-01-19T08:29:29;20.60;99.90
16441;DHT22;8330;-33.858;151.184;2023-01-19T08:32:04;20.80;99.90
16441;DHT22;8330;-33.858;151.184;2023-01-19T08:34:35;20.80;99.90
16441;DHT22;8330;-33.858;151.184;2023-01-19T08:37:07;20.80;99.90
16441;DHT22;8330;-33.858;151.184;2023-01-19T08:39:38;20.70;99.90
16441;DHT22;8330;-33.858;151.184;2023-01-19T08:42:10;20.80;99.90
16441;DHT22;8330;-33.858;151.184;2023-01-19T08:44:41;20.70;99.90
16441;DHT22;8330;-33.858;151.184;2023-01-19T08:47:13;20.80;99.90
16441;DHT22;8330;-33.858;151.184;2023-01-19T08:49:44;20.80;99.90
16441;DHT22;8330;-33.858;151.184;2023-01-19T08:52:17;20.80;99.90
16441;DHT22;8330;-33.858;151.184;2023-01-19T08:54:51;20.80;99.90
16441;DHT22;8330;-33.858;151.184;2023-01-19T08:57:22;20.90;99.90
16441;DHT22;8330;-33.858;151.184;2023-01-19T08:59:53;20.90;99.90
16441;DHT22;8330;-33.858;151.184;2023-01-19T09:02:26;20.80;99.90
16441;DHT22;8330;-33.858;151.184;2023-01-19T09:04:57;20.80;99.90
16441;DHT22;8330;-33.858;151.184;2023-01-19T09:07:28;20.80;99.90
16441;DHT22;8330;-33.858;151.184;2023-01-19T09:09:59;20.80;99.90
16441;DHT22;8330;-33.858;151.184;2023-01-19T09:12:33;20.80;99.90
16441;DHT22;8330;-33.858;151.184;2023-01-19T09:15:04;20.70;99.90
16441;DHT22;8330;-33.858;151.184;2023-01-19T09:17:40;20.80;99.90
16441;DHT22;8330;-33.858;151.184;2023-01-19T09:20:12;20.80;99.90
16441;DHT22;8330;-33.858;151.184;2023-01-19T09:22:44;20.80;99.90
16441;DHT22;8330;-33.858;151.184;2023-01-19T09:25:16;20.80;99.90
16441;DHT22;8330;-33.858;151.184;2023-01-19T09:27:48;20.90;99.90
16441;DHT22;8330;-33.858;151.184;2023-01-19T09:30:19;20.90;99.90
16441;DHT22;8330;-33.858;151.184;2023-01-19T09:32:52;20.90;99.90
16441;DHT22;8330;-33.858;151.184;2023-01-19T09:35:23;20.90;99.90
16441;DHT22;8330;-33.858;151.184;2023-01-19T09:37:54;20.90;99.90
16441;DHT22;8330;-33.858;151.184;2023-01-19T09:40:26;21.00;99.90
16441;DHT22;8330;-33.858;151.184;2023-01-19T09:43:15;20.90;99.90
16441;DHT22;8330;-33.858;151.184;2023-01-19T09:45:49;20.90;99.90
16441;DHT22;8330;-33.858;151.184;2023-01-19T09:48:37;20.90;99.90
16441;DHT22;8330;-33.858;151.184;2023-01-19T09:51:17;21.00;99.90
16441;DHT22;8330;-33.858;151.184;2023-01-19T09:54:00;21.00;99.90
16441;DHT22;8330;-33.858;151.184;2023-01-19T09:56:33;21.00;99.90
16441;DHT22;8330;-33.858;151.184;2023-01-19T09:59:16;20.90;99.90
16441;DHT22;8330;-33.858;151.184;2023-01-19T10:04:51;20.90;99.90
16441;DHT22;8330;-33.858;151.184;2023-01-19T10:07:36;20.90;99.90
16441;DHT22;8330;-33.858;151.184;2023-01-19T10:10:16;20.90;99.90
16441;DHT22;8330;-33.858;151.184;2023-01-19T10:13:07;20.90;99.90
16441;DHT22;8330;-33.858;151.184;2023-01-19T10:15:52;20.90;99.90
16441;DHT22;8330;-33.858;151.184;2023-01-19T10:18:28;20.90;99.90
16441;DHT22;8330;-33.858;151.184;2023-01-19T10:21:15;21.00;99.90
16441;DHT22;8330;-33.858;151.184;2023-01-19T10:23:49;21.10;99.90
16441;DHT22;8330;-33.858;151.184;2023-01-19T10:26:24;21.10;99.90
16441;DHT22;8330;-33.858;151.184;2023-01-19T10:29:00;21.20;99.90
16441;DHT22;8330;-33.858;151.184;2023-01-19T10:31:34;21.20;99.90
16441;DHT22;8330;-33.858;151.184;2023-01-19T10:37:35;21.30;99.90
16441;DHT22;8330;-33.858;151.184;2023-01-19T10:43:35;21.40;99.90
16441;DHT22;8330;-33.858;151.184;2023-01-19T10:46:07;21.50;99.90
16441;DHT22;8330;-33.858;151.184;2023-01-19T10:48:44;21.50;99.90
16441;DHT22;8330;-33.858;151.184;2023-01-19T10:51:17;21.50;99.90
16441;DHT22;8330;-33.858;151.184;2023-01-19T10:54:02;21.60;99.90
16441;DHT22;8330;-33.858;151.184;2023-01-19T10:56:35;21.60;99.90
16441;DHT22;8330;-33.858;151.184;2023-01-19T10:59:27;21.50;99.90
16441;DHT22;8330;-33.858;151.184;2023-01-19T11:02:16;21.50;99.90
16441;DHT22;8330;-33.858;151.184;2023-01-19T11:05:23;21.50;99.90
16441;DHT22;8330;-33.858;151.184;2023-01-19T11:07:58;21.60;99.90
16441;DHT22;8330;-33.858;151.184;2023-01-19T11:10:52;21.70;99.90
16441;DHT22;8330;-33.858;151.184;2023-01-19T11:13:27;21.60;99.90
16441;DHT22;8330;-33.858;151.184;2023-01-19T11:16:04;21.60;99.90
16441;DHT22;8330;-33.858;151.184;2023-01-19T11:18:41;21.70;99.90
16441;DHT22;8330;-33.858;151.184;2023-01-19T11:21:15;21.70;99.90
16441;DHT22;8330;-33.858;151.184;2023-01-19T11:23:49;21.60;99.90
16441;DHT22;8330;-33.858;151.184;2023-01-19T11:26:28;21.60;99.90
16441;DHT22;8330;-33.858;151.184;2023-01-19T11:29:01;21.60;99.90
16441;DHT22;8330;-33.858;151.184;2023-01-19T11:31:34;21.60;99.90
16441;DHT22;8330;-33.858;151.184;2023-01-19T11:34:20;21.60;99.90
16441;DHT22;8330;-33.858;151.184;2023-01-19T11:36:57;21.60;99.90
16441;DHT22;8330;-33.858;151.184;2023-01-19T11:39:29;21.60;99.90
16441;DHT22;8330;-33.858;151.184;2023-01-19T11:42:05;21.70;99.90
16441;DHT22;8330;-33.858;151.184;2023-01-19T11:44:43;21.70;99.90
16441;DHT22;8330;-33.858;151.184;2023-01-19T11:47:22;21.70;99.90
16441;DHT22;8330;-33.858;151.184;2023-01-19T11:50:00;21.70;99.90
16441;DHT22;8330;-33.858;151.184;2023-01-19T11:52:36;21.60;99.90
16441;DHT22;8330;-33.858;151.184;2023-01-19T11:55:18;21.70;99.90
16441;DHT22;8330;-33.858;151.184;2023-01-19T11:57:56;21.70;99.90
16441;DHT22;8330;-33.858;151.184;2023-01-19T12:00:33;21.80;99.90
16441;DHT22;8330;-33.858;151.184;2023-01-19T12:03:13;21.70;99.90
16441;DHT22;8330;-33.858;151.184;2023-01-19T12:05:51;21.70;99.90
16441;DHT22;8330;-33.858;151.184;2023-01-19T12:08:24;21.70;99.90
16441;DHT22;8330;-33.858;151.184;2023-01-19T12:10:59;21.70;99.90
16441;DHT22;8330;-33.858;151.184;2023-01-19T12:13:33;21.70;99.90
16441;DHT22;8330;-33.858;151.184;2023-01-19T12:16:07;21.70;99.90
16441;DHT22;8330;-33.858;151.184;2023-01-19T12:18:44;21.60;99.90
16441;DHT22;8330;-33.858;151.184;2023-01-19T12:21:17;21.70;99.90
16441;DHT22;8330;-33.858;151.184;2023-01-19T12:23:58;21.70;99.90
16441;DHT22;8330;-33.858;151.184;2023-01-19T12:26:35;21.70;99.90
16441;DHT22;8330;-33.858;151.184;2023-01-19T12:29:12;21.70;99.90
16441;DHT22;8330;-33.858;151.184;2023-01-19T12:31:45;21.70;99.90
16441;DHT22;8330;-33.858;151.184;2023-01-19T12:34:43;21.80;99.90
16441;DHT22;8330;-33.858;151.184;2023-01-19T12:37:35;21.70;99.90
16441;DHT22;8330;-33.858;151.184;2023-01-19T12:40:22;21.70;99.90
16441;DHT22;8330;-33.858;151.184;2023-01-19T12:42:58;21.70;99.90
16441;DHT22;8330;-33.858;151.184;2023-01-19T12:45:32;21.70;99.90
16441;DHT22;8330;-33.858;151.184;2023-01-19T12:48:23;21.70;99.90
16441;DHT22;8330;-33.858;151.184;2023-01-19T12:50:56;21.70;99.90
16441;DHT22;8330;-33.858;151.184;2023-01-19T12:53:30;21.70;99.90
16441;DHT22;8330;-33.858;151.184;2023-01-19T12:56:06;21.80;99.90
16441;DHT22;8330;-33.858;151.184;2023-01-19T12:58:37;21.80;99.90
16441;DHT22;8330;-33.858;151.184;2023-01-19T13:01:17;21.80;99.90
16441;DHT22;8330;-33.858;151.184;2023-01-19T13:04:00;21.80;99.90
16441;DHT22;8330;-33.858;151.184;2023-01-19T13:07:05;21.80;99.90
16441;DHT22;8330;-33.858;151.184;2023-01-19T13:09:37;21.80;99.90
16441;DHT22;8330;-33.858;151.184;2023-01-19T13:12:21;21.70;99.90
16441;DHT22;8330;-33.858;151.184;2023-01-19T13:15:32;21.80;99.90
16441;DHT22;8330;-33.858;151.184;2023-01-19T13:18:08;21.80;99.90
16441;DHT22;8330;-33.858;151.184;2023-01-19T13:20:45;21.70;99.90
16441;DHT22;8330;-33.858;151.184;2023-01-19T13:23:23;21.80;99.90
16441;DHT22;8330;-33.858;151.184;2023-01-19T13:26:03;21.80;99.90
16441;DHT22;8330;-33.858;151.184;2023-01-19T13:28:40;21.70;99.90
16441;DHT22;8330;-33.858;151.184;2023-01-19T13:31:15;21.70;99.90
16441;DHT22;8330;-33.858;151.184;2023-01-19T13:33:51;21.60;99.90
16441;DHT22;8330;-33.858;151.184;2023-01-19T13:36:28;21.60;99.90
16441;DHT22;8330;-33.858;151.184;2023-01-19T13:39:04;21.50;99.90
16441;DHT22;8330;-33.858;151.184;2023-01-19T13:41:38;21.40;99.90
16441;DHT22;8330;-33.858;151.184;2023-01-19T13:44:12;21.40;99.90
16441;DHT22;8330;-33.858;151.184;2023-01-19T13:46:44;21.30;99.90
16441;DHT22;8330;-33.858;151.184;2023-01-19T13:49:20;21.20;99.90
16441;DHT22;8330;-33.858;151.184;2023-01-19T13:52:12;21.20;99.90
16441;DHT22;8330;-33.858;151.184;2023-01-19T13:54:51;21.20;99.90
16441;DHT22;8330;-33.858;151.184;2023-01-19T13:57:26;21.10;99.90
16441;DHT22;8330;-33.858;151.184;2023-01-19T14:00:06;21.00;99.90
16441;DHT22;8330;-33.858;151.184;2023-01-19T14:02:38;20.90;99.90
16441;DHT22;8330;-33.858;151.184;2023-01-19T14:05:21;21.00;99.90
16441;DHT22;8330;-33.858;151.184;2023-01-19T14:08:03;21.00;99.90
16441;DHT22;8330;-33.858;151.184;2023-01-19T14:10:36;20.90;99.90
16441;DHT22;8330;-33.858;151.184;2023-01-19T14:13:14;20.90;99.90
16441;DHT22;8330;-33.858;151.184;2023-01-19T14:15:46;20.90;99.90
16441;DHT22;8330;-33.858;151.184;2023-01-19T14:18:25;20.90;99.90
16441;DHT22;8330;-33.858;151.184;2023-01-19T14:21:00;20.80;99.90
16441;DHT22;8330;-33.858;151.184;2023-01-19T14:23:44;20.90;99.90
16441;DHT22;8330;-33.858;151.184;2023-01-19T14:26:40;20.80;99.90
16441;DHT22;8330;-33.858;151.184;2023-01-19T14:29:23;20.80;99.90
16441;DHT22;8330;-33.858;151.184;2023-01-19T14:32:05;20.70;99.90
16441;DHT22;8330;-33.858;151.184;2023-01-19T14:34:38;20.80;99.90
16441;DHT22;8330;-33.858;151.184;2023-01-19T14:37:20;20.80;99.90
16441;DHT22;8330;-33.858;151.184;2023-01-19T14:39:54;20.70;99.90
16441;DHT22;8330;-33.858;151.184;2023-01-19T14:42:32;20.70;99.90
16441;DHT22;8330;-33.858;151.184;2023-01-19T14:45:06;20.70;99.90
16441;DHT22;8330;-33.858;151.184;2023-01-19T14:47:51;20.60;99.90
16441;DHT22;8330;-33.858;151.184;2023-01-19T14:50:24;20.60;99.90
16441;DHT22;8330;-33.858;151.184;2023-01-19T14:53:02;20.60;99.90
16441;DHT22;8330;-33.858;151.184;2023-01-19T14:55:38;20.50;99.90
16441;DHT22;8330;-33.858;151.184;2023-01-19T14:58:14;20.50;99.90
16441;DHT22;8330;-33.858;151.184;2023-01-19T15:00:48;20.60;99.90
16441;DHT22;8330;-33.858;151.184;2023-01-19T15:03:22;20.70;99.90
16441;DHT22;8330;-33.858;151.184;2023-01-19T15:05:56;20.60;99.90
16441;DHT22;8330;-33.858;151.184;2023-01-19T15:08:31;20.60;99.90
16441;DHT22;8330;-33.858;151.184;2023-01-19T15:11:11;20.70;99.90
16441;DHT22;8330;-33.858;151.184;2023-01-19T15:13:44;20.80;99.90
16441;DHT22;8330;-33.858;151.184;2023-01-19T15:16:16;20.80;99.90
16441;DHT22;8330;-33.858;151.184;2023-01-19T15:18:47;20.70;99.90
16441;DHT22;8330;-33.858;151.184;2023-01-19T15:21:19;20.70;99.90
16441;DHT22;8330;-33.858;151.184;2023-01-19T15:23:55;20.70;99.90
16441;DHT22;8330;-33.858;151.184;2023-01-19T15:26:27;20.70;99.90
16441;DHT22;8330;-33.858;151.184;2023-01-19T15:28:58;20.60;99.90
16441;DHT22;8330;-33.858;151.184;2023-01-19T15:31:30;20.60;99.90
16441;DHT22;8330;-33.858;151.184;2023-01-19T15:34:01;20.60;99.90
16441;DHT22;8330;-33.858;151.184;2023-01-19T15:36:32;20.60;99.90
16441;DHT22;8330;-33.858;151.184;2023-01-19T15:39:05;20.60;99.90
16441;DHT22;8330;-33.858;151.184;2023-01-19T15:41:37;20.50;99.90
16441;DHT22;8330;-33.858;151.184;2023-01-19T15:44:10;20.50;99.90
16441;DHT22;8330;-33.858;151.184;2023-01-19T15:46:41;20.50;99.90
16441;DHT22;8330;-33.858;151.184;2023-01-19T15:49:12;20.50;99.90
16441;DHT22;8330;-33.858;151.184;2023-01-19T15:51:43;20.50;99.90
16441;DHT22;8330;-33.858;151.184;2023-01-19T15:54:16;20.50;99.90
16441;DHT22;8330;-33.858;151.184;2023-01-19T15:56:48;20.50;99.90
16441;DHT22;8330;-33.858;151.184;2023-01-19T15:59:19;20.60;99.90
16441;DHT22;8330;-33.858;151.184;2023-01-19T16:01:52;20.60;99.90